createdAt,value
2023-02-02T00:01:11.557Z,97440.00
2023-02-02T00:03:38.369Z,97438.81
2023-02-02T00:06:05.251Z,97440.78
2023-02-02T00:08:32.368Z,97443.56
2023-02-02T00:10:58.919Z,97442.78
2023-02-02T00:13:25.464Z,97434.47
2023-02-02T00:15:53.565Z,97441.56
2023-02-02T00:18:20.207Z,97432.84
2023-02-02T00:20:49.308Z,97440.41
2023-02-02T00:23:17.361Z,97444.72
2023-02-02T00:25:43.907Z,97433.66
2023-02-02T00:28:10.468Z,97443.16
2023-02-02T00:30:37.074Z,97433.25
2023-02-02T00:33:03.772Z,97436.44
2023-02-02T00:35:30.388Z,97437.59
2023-02-02T00:37:56.959Z,97438.00
2023-02-02T00:40:23.580Z,97434.06
2023-02-02T00:42:50.538Z,97432.06
2023-02-02T00:45:17.211Z,97436.81
2023-02-02T00:47:49.264Z,97442.38
2023-02-02T00:50:21.830Z,97430.50
2023-02-02T00:52:49.253Z,97425.75
2023-02-02T00:55:16.492Z,97421.00
2023-02-02T00:57:44.441Z,97421.78
2023-02-02T01:00:15.158Z,97429.69
2023-02-02T01:02:42.316Z,97425.75
2023-02-02T01:05:09.755Z,97422.94
2023-02-02T01:07:36.403Z,97433.63
2023-02-02T01:10:03.633Z,97427.31
2023-02-02T01:12:30.474Z,97428.09
2023-02-02T01:14:56.996Z,97424.94
2023-02-02T01:17:23.603Z,97419.41
2023-02-02T01:19:50.190Z,97424.94
2023-02-02T01:22:16.783Z,97418.63
2023-02-02T01:24:43.330Z,97418.63
2023-02-02T01:27:09.880Z,97422.97
2023-02-02T01:29:36.489Z,97426.13
2023-02-02T01:32:03.486Z,97409.16
2023-02-02T01:34:30.089Z,97424.16
2023-02-02T01:36:56.738Z,97419.03
2023-02-02T01:39:23.341Z,97416.66
2023-02-02T01:41:49.988Z,97417.84
2023-02-02T01:44:53.851Z,97406.75
2023-02-02T01:47:24.956Z,97403.59
2023-02-02T01:49:52.434Z,97415.88
2023-02-02T01:52:22.556Z,97414.28
2023-02-02T01:54:53.291Z,97415.47
2023-02-02T01:57:34.544Z,97421.78
2023-02-02T02:00:05.073Z,97428.13
2023-02-02T02:02:32.612Z,97440.75
2023-02-02T02:05:02.150Z,97430.88
2023-02-02T02:07:29.520Z,97417.84
2023-02-02T02:09:56.055Z,97421.00
2023-02-02T02:12:22.648Z,97418.59
2023-02-02T02:15:09.579Z,97420.19
2023-02-02T02:17:54.898Z,97413.47
2023-02-02T02:20:58.959Z,97403.97
2023-02-02T02:23:44.136Z,97407.13
2023-02-02T02:26:34.878Z,97406.34
2023-02-02T02:29:19.815Z,97397.22
2023-02-02T02:32:06.105Z,97399.59
2023-02-02T02:34:52.977Z,97401.13
2023-02-02T02:37:28.256Z,97405.91
2023-02-02T02:39:57.848Z,97398.38
2023-02-02T02:42:28.627Z,97397.94
2023-02-02T02:44:56.456Z,97397.56
2023-02-02T02:47:23.233Z,97395.56
2023-02-02T02:49:49.761Z,97399.53
2023-02-02T02:52:16.351Z,97403.06
2023-02-02T02:54:49.909Z,97405.44
2023-02-02T02:57:31.397Z,97411.31
2023-02-02T03:00:19.662Z,97403.78
2023-02-02T03:03:05.051Z,97404.94
2023-02-02T03:05:56.886Z,97410.44
2023-02-02T03:08:55.364Z,97415.53
2023-02-02T03:11:22.253Z,97415.88
2023-02-02T03:13:49.428Z,97419.06
2023-02-02T03:16:17.404Z,97411.97
2023-02-02T03:18:44.259Z,97416.66
2023-02-02T03:21:11.031Z,97392.88
2023-02-02T03:23:38.758Z,97396.78
2023-02-02T03:26:05.949Z,97408.16
2023-02-02T03:28:32.467Z,97411.31
2023-02-02T03:31:02.097Z,97418.00
2023-02-02T03:33:29.926Z,97415.94
2023-02-02T03:35:56.585Z,97378.78
2023-02-02T03:38:23.288Z,97400.19
2023-02-02T03:40:51.572Z,97391.06
2023-02-02T03:43:24.841Z,97400.63
2023-02-02T03:46:04.303Z,97406.53
2023-02-02T03:48:34.583Z,97402.09
2023-02-02T03:51:01.096Z,97392.66
2023-02-02T03:53:27.637Z,97396.59
2023-02-02T03:55:55.016Z,97402.09
2023-02-02T03:58:22.443Z,97401.28
2023-02-02T04:00:49.295Z,97410.75
2023-02-02T04:03:15.928Z,97411.50
2023-02-02T04:05:42.504Z,97400.88
2023-02-02T04:08:09.104Z,97403.72
2023-02-02T04:10:35.699Z,97406.13
2023-02-02T04:13:02.244Z,97408.47
2023-02-02T04:15:28.806Z,97400.56
2023-02-02T04:17:55.309Z,97398.59
2023-02-02T04:20:21.862Z,97404.13
2023-02-02T04:22:48.455Z,97415.50
2023-02-02T04:25:15.035Z,97421.88
2023-02-02T04:27:41.586Z,97424.97
2023-02-02T04:30:09.074Z,97415.47
2023-02-02T04:32:35.792Z,97417.81
2023-02-02T04:35:02.424Z,97427.25
2023-02-02T04:37:31.731Z,97426.44
2023-02-02T04:39:58.386Z,97423.19
2023-02-02T04:42:24.990Z,97423.97
2023-02-02T04:44:51.525Z,97430.31
2023-02-02T04:47:18.153Z,97425.94
2023-02-02T04:49:44.714Z,97438.97
2023-02-02T04:52:11.984Z,97425.59
2023-02-02T04:54:38.425Z,97435.72
2023-02-02T04:57:05.006Z,97434.72
2023-02-02T04:59:31.585Z,97436.69
2023-02-02T05:02:02.058Z,97433.91
2023-02-02T05:04:28.878Z,97438.56
2023-02-02T05:06:55.537Z,97444.09
2023-02-02T05:09:22.157Z,97424.91
2023-02-02T05:11:48.734Z,97442.38
2023-02-02T05:14:18.391Z,97457.38
2023-02-02T05:16:45.084Z,97453.47
2023-02-02T05:19:12.479Z,97460.63
2023-02-02T05:21:39.144Z,97462.28
2023-02-02T05:24:05.932Z,97466.28
2023-02-02T05:26:32.469Z,97466.38
2023-02-02T05:28:58.995Z,97474.34
2023-02-02T05:31:25.753Z,97477.13
2023-02-02T05:33:52.366Z,97463.38
2023-02-02T05:36:19.046Z,97472.84
2023-02-02T05:38:45.681Z,97470.13
2023-02-02T05:41:12.272Z,97475.34
2023-02-02T05:43:38.855Z,97473.81
2023-02-02T05:46:05.435Z,97471.38
2023-02-02T05:48:32.355Z,97469.84
2023-02-02T05:51:12.183Z,97465.94
2023-02-02T05:53:39.301Z,97470.63
2023-02-02T05:56:06.061Z,97483.66
2023-02-02T05:58:32.588Z,97487.28
2023-02-02T06:00:59.118Z,97481.78
2023-02-02T06:03:25.806Z,97478.53
2023-02-02T06:05:52.519Z,97480.16
2023-02-02T06:08:19.114Z,97484.53
2023-02-02T06:10:45.751Z,97484.16
2023-02-02T06:13:12.348Z,97484.19
2023-02-02T06:15:39.010Z,97490.97
2023-02-02T06:18:08.648Z,97496.84
2023-02-02T06:20:35.576Z,97495.25
2023-02-02T06:23:02.564Z,97495.19
2023-02-02T06:25:29.088Z,97499.63
2023-02-02T06:27:57.447Z,97446.31
2023-02-02T06:30:24.320Z,97487.56
2023-02-02T06:32:51.147Z,97510.66
2023-02-02T06:35:17.991Z,97508.38
2023-02-02T06:37:44.837Z,97515.22
2023-02-02T06:40:12.351Z,97514.91
2023-02-02T06:42:39.040Z,97516.53
2023-02-02T06:45:05.993Z,97530.44
2023-02-02T06:47:33.410Z,97531.25
2023-02-02T06:49:59.956Z,97534.03
2023-02-02T06:52:26.720Z,97532.09
2023-02-02T06:54:53.335Z,97508.78
2023-02-02T06:57:19.968Z,97508.81
2023-02-02T06:59:47.196Z,97505.63
2023-02-02T07:02:14.088Z,97517.44
2023-02-02T07:04:40.745Z,97509.59
2023-02-02T07:07:07.329Z,97502.47
2023-02-02T07:09:34.410Z,97510.38
2023-02-02T07:12:01.286Z,97513.53
2023-02-02T07:14:27.892Z,97506.41
2023-02-02T07:16:54.413Z,97517.47
2023-02-02T07:19:21.019Z,97514.31
2023-02-02T07:21:47.738Z,97508.38
2023-02-02T07:24:14.245Z,97510.34
2023-02-02T07:26:40.958Z,97509.19
2023-02-02T07:29:07.811Z,97515.13
2023-02-02T07:31:36.667Z,97515.91
2023-02-02T07:34:03.827Z,97522.25
2023-02-02T07:36:30.607Z,97511.97
2023-02-02T07:39:02.330Z,97509.59
2023-02-02T07:41:28.947Z,97511.16
2023-02-02T07:43:55.559Z,97508.00
2023-02-02T07:46:22.431Z,97513.53
2023-02-02T07:48:49.328Z,97512.78
2023-02-02T07:51:18.231Z,97516.31
2023-02-02T07:53:50.431Z,97519.88
2023-02-02T07:56:18.252Z,97510.38
2023-02-02T07:58:45.428Z,97510.38
2023-02-02T08:01:14.801Z,97501.25
2023-02-02T08:03:42.987Z,97490.16
2023-02-02T08:06:19.826Z,97488.16
2023-02-02T08:08:47.651Z,97481.81
2023-02-02T08:11:16.109Z,97488.97
2023-02-02T08:13:43.818Z,97488.84
2023-02-02T08:16:12.463Z,97488.28
2023-02-02T08:18:39.720Z,97476.59
2023-02-02T08:21:08.598Z,97454.28
2023-02-02T08:23:36.674Z,97434.63
2023-02-02T08:26:10.796Z,97429.69
2023-02-02T08:28:38.060Z,97415.06
2023-02-02T08:31:11.733Z,97413.31
2023-02-02T08:33:39.639Z,97422.41
2023-02-02T08:36:12.160Z,97410.28
2023-02-02T08:38:39.049Z,97446.50
2023-02-02T08:41:07.289Z,97452.56
2023-02-02T08:43:34.360Z,97439.13
2023-02-02T08:46:05.355Z,97460.56
2023-02-02T08:48:40.068Z,97464.75
2023-02-02T08:51:07.587Z,97455.59
2023-02-02T08:53:34.730Z,97461.75
2023-02-02T08:56:10.977Z,97457.41
2023-02-02T08:58:38.236Z,97466.56
2023-02-02T09:01:06.848Z,97463.63
2023-02-02T09:03:33.870Z,97466.91
2023-02-02T09:06:09.071Z,97473.41
2023-02-02T09:08:36.066Z,97464.34
2023-02-02T09:11:18.602Z,97461.44
2023-02-02T09:13:46.844Z,97454.91
2023-02-02T09:16:15.406Z,97454.81
2023-02-02T09:18:42.801Z,97445.59
2023-02-02T09:21:10.568Z,97452.84
2023-02-02T09:23:39.215Z,97453.50
2023-02-02T09:26:40.353Z,97445.19
2023-02-02T09:29:08.550Z,97445.03
2023-02-02T09:31:37.373Z,97441.75
2023-02-02T09:34:06.244Z,97429.88
2023-02-02T09:36:33.912Z,97423.25
2023-02-02T09:39:00.859Z,97411.59
2023-02-02T09:41:39.539Z,97411.03
2023-02-02T09:44:45.454Z,97409.94
2023-02-02T09:47:11.993Z,97406.94
2023-02-02T09:50:03.257Z,97402.50
2023-02-02T09:52:40.744Z,97393.28
2023-02-02T09:55:15.789Z,97383.69
2023-02-02T09:57:55.587Z,97382.31
2023-02-02T10:00:32.722Z,97378.88
2023-02-02T10:03:11.079Z,97368.09
2023-02-02T10:06:02.876Z,97356.63
2023-02-02T10:08:51.284Z,97351.16
2023-02-02T10:11:23.748Z,97352.38
2023-02-02T10:13:52.925Z,97343.88
2023-02-02T10:16:22.398Z,97322.31
2023-02-02T10:19:04.582Z,97337.69
2023-02-02T10:21:53.051Z,97324.75
2023-02-02T10:24:22.604Z,97306.28
2023-02-02T10:26:54.187Z,97317.06
2023-02-02T10:29:27.233Z,97311.44
2023-02-02T10:32:10.869Z,97317.50
2023-02-02T10:34:40.591Z,97317.50
2023-02-02T10:37:19.611Z,97309.94
2023-02-02T10:39:55.020Z,97304.88
2023-02-02T10:42:24.593Z,97297.75
2023-02-02T10:45:18.127Z,97295.78
2023-02-02T10:47:45.821Z,97290.19
2023-02-02T10:50:12.394Z,97285.31
2023-02-02T10:52:50.284Z,97262.88
2023-02-02T10:55:35.700Z,97290.69
2023-02-02T10:58:06.814Z,97279.72
2023-02-02T11:00:34.774Z,97271.34
2023-02-02T11:03:04.724Z,97273.72
2023-02-02T11:05:50.471Z,97266.88
2023-02-02T11:08:30.231Z,97257.59
2023-02-02T11:11:01.991Z,97256.75
2023-02-02T11:13:32.648Z,97251.03
2023-02-02T11:16:19.889Z,97252.75
2023-02-02T11:18:47.247Z,97238.31
2023-02-02T11:21:22.562Z,97245.44
2023-02-02T11:24:01.407Z,97249.06
2023-02-02T11:26:45.347Z,97234.22
2023-02-02T11:29:37.400Z,97227.31
2023-02-02T11:32:27.458Z,97228.28
2023-02-02T11:35:19.578Z,97221.81
2023-02-02T11:38:14.470Z,97221.06
2023-02-02T11:41:05.247Z,97214.66
2023-02-02T11:43:41.470Z,97215.13
2023-02-02T11:46:31.264Z,97204.22
2023-02-02T11:49:04.253Z,97199.88
2023-02-02T11:51:31.658Z,97192.19
2023-02-02T11:54:06.775Z,97192.19
2023-02-02T11:56:36.947Z,97179.81
2023-02-02T11:59:05.614Z,97147.34
2023-02-02T12:01:41.445Z,97167.13
2023-02-02T12:04:24.467Z,97163.75
2023-02-02T12:06:51.169Z,97148.88
2023-02-02T12:09:21.603Z,97148.72
2023-02-02T12:12:09.542Z,97148.31
2023-02-02T12:14:43.886Z,97142.91
2023-02-02T12:17:39.003Z,97137.41
2023-02-02T12:20:36.815Z,97128.13
2023-02-02T12:23:24.635Z,97123.78
2023-02-02T12:25:59.299Z,97125.41
2023-02-02T12:28:53.782Z,97116.09
2023-02-02T12:31:48.833Z,97114.91
2023-02-02T12:34:18.287Z,97109.59
2023-02-02T12:36:47.615Z,97105.50
2023-02-02T12:39:34.607Z,97101.75
2023-02-02T12:42:07.138Z,97099.72
2023-02-02T12:45:04.298Z,97089.19
2023-02-02T12:47:48.166Z,97090.03
2023-02-02T12:50:29.939Z,97084.41
2023-02-02T12:53:17.896Z,97090.44
2023-02-02T12:55:59.474Z,97084.41
2023-02-02T12:58:41.636Z,97078.16
2023-02-02T13:01:20.673Z,97061.44
2023-02-02T13:04:19.184Z,97065.16
2023-02-02T13:06:56.439Z,97072.34
2023-02-02T13:09:48.496Z,97070.72
2023-02-02T13:12:19.119Z,97082.97
2023-02-02T13:14:55.329Z,97081.72
2023-02-02T13:17:29.616Z,97079.53
2023-02-02T13:20:02.283Z,97065.72
2023-02-02T13:22:34.523Z,97072.28
2023-02-02T13:25:05.127Z,97067.69
2023-02-02T13:27:32.959Z,97065.34
2023-02-02T13:30:11.320Z,97062.66
2023-02-02T13:32:42.643Z,97059.06
2023-02-02T13:35:34.150Z,97075.34
2023-02-02T13:38:34.946Z,97063.66
2023-02-02T13:41:07.533Z,97079.78
2023-02-02T13:43:47.914Z,97065.59
2023-02-02T13:46:31.154Z,97066.72
2023-02-02T13:49:10.846Z,97067.38
2023-02-02T13:51:55.014Z,97067.72
2023-02-02T13:54:31.653Z,97060.22
2023-02-02T13:57:06.953Z,97063.03
2023-02-02T13:59:39.378Z,97062.09
2023-02-02T14:02:20.911Z,97058.66
2023-02-02T14:04:55.041Z,97064.13
2023-02-02T14:07:48.544Z,97061.13
2023-02-02T14:10:40.001Z,97065.00
2023-02-02T14:13:32.999Z,97063.59
2023-02-02T14:16:03.519Z,97073.25
2023-02-02T14:18:48.962Z,97076.69
2023-02-02T14:21:33.547Z,97084.19
2023-02-02T14:24:19.686Z,97085.38
2023-02-02T14:26:53.025Z,97076.63
2023-02-02T14:29:31.928Z,97086.94
2023-02-02T14:32:02.557Z,97098.78
2023-02-02T14:34:40.731Z,97103.31
2023-02-02T14:37:28.496Z,97106.72
2023-02-02T14:40:06.180Z,97096.75
2023-02-02T14:43:13.488Z,97093.50
2023-02-02T14:45:41.061Z,97093.41
2023-02-02T14:48:07.537Z,97082.34
2023-02-02T14:50:41.662Z,97076.09
2023-02-02T14:53:17.736Z,97100.00
2023-02-02T14:55:55.869Z,97099.03
2023-02-02T14:58:29.524Z,97107.66
2023-02-02T15:01:25.209Z,97097.38
2023-02-02T15:04:00.791Z,97114.56
2023-02-02T15:06:36.416Z,97132.88
2023-02-02T15:09:27.397Z,97137.41
2023-02-02T15:12:02.949Z,97157.84
2023-02-02T15:14:44.669Z,97175.75
2023-02-02T15:17:26.319Z,97187.09
2023-02-02T15:20:08.968Z,97210.28
2023-02-02T15:22:43.309Z,97219.41
2023-02-02T15:25:24.339Z,97237.50
2023-02-02T15:28:00.370Z,97264.44
2023-02-02T15:30:30.942Z,97274.28
2023-02-02T15:32:57.642Z,97273.63
2023-02-02T15:35:30.288Z,97278.34
2023-02-02T15:38:04.574Z,97262.09
2023-02-02T15:40:32.264Z,97256.00
2023-02-02T15:43:02.732Z,97257.81
2023-02-02T15:45:53.008Z,97266.13
2023-02-02T15:48:24.665Z,97267.06
2023-02-02T15:50:56.648Z,97270.31
2023-02-02T15:53:44.618Z,97271.38
2023-02-02T15:56:22.989Z,97279.09
2023-02-02T15:58:54.035Z,97271.63
2023-02-02T16:01:23.195Z,97285.63
2023-02-02T16:03:57.425Z,97293.09
2023-02-02T16:06:24.108Z,97290.09
2023-02-02T16:08:50.842Z,97283.81
2023-02-02T16:11:21.017Z,97292.88
2023-02-02T16:14:02.411Z,97268.78
2023-02-02T16:16:30.429Z,97289.94
2023-02-02T16:19:09.576Z,97296.94
2023-02-02T16:21:42.631Z,97310.41
2023-02-02T16:24:21.825Z,97317.63
2023-02-02T16:26:50.723Z,97321.69
2023-02-02T16:29:19.231Z,97333.56
2023-02-02T16:31:50.748Z,97329.56
2023-02-02T16:34:42.083Z,97334.28
2023-02-02T16:37:32.547Z,97344.75
2023-02-02T16:40:17.538Z,97358.44
2023-02-02T16:42:44.157Z,97381.53
2023-02-02T16:45:34.853Z,97400.50
2023-02-02T16:48:32.209Z,97398.56
2023-02-02T16:51:16.797Z,97402.28
2023-02-02T16:53:43.334Z,97416.09
2023-02-02T16:56:19.506Z,97416.13
2023-02-02T16:58:46.243Z,97427.41
2023-02-02T17:01:16.619Z,97404.91
2023-02-02T17:03:54.579Z,97402.50
2023-02-02T17:06:46.285Z,97406.47
2023-02-02T17:09:38.069Z,97403.75
2023-02-02T17:12:32.806Z,97410.78
2023-02-02T17:15:29.299Z,97436.97
2023-02-02T17:17:56.565Z,97453.56
2023-02-02T17:20:23.655Z,97432.72
2023-02-02T17:23:01.435Z,97447.38
2023-02-02T17:25:34.998Z,97457.56
2023-02-02T17:57:38.241Z,97472.59
2023-02-02T18:00:05.625Z,97470.53
2023-02-02T18:02:32.522Z,97464.22
2023-02-02T18:04:59.180Z,97456.28
2023-02-02T18:07:25.889Z,97467.00
2023-02-02T18:09:52.675Z,97470.66
2023-02-02T18:12:19.925Z,97485.56
2023-02-02T18:14:46.759Z,97477.84
2023-02-02T18:17:13.692Z,97503.84
2023-02-02T18:19:45.260Z,97473.34
2023-02-02T18:22:13.965Z,97489.09
2023-02-02T18:24:41.345Z,97487.53
2023-02-02T18:27:08.484Z,97479.25
2023-02-02T18:29:35.557Z,97487.13
2023-02-02T18:32:02.905Z,97479.63
2023-02-02T18:34:30.878Z,97487.47
2023-02-02T18:36:58.824Z,97503.75
2023-02-02T18:39:25.890Z,97498.16
2023-02-02T18:41:52.887Z,97501.69
2023-02-02T18:44:19.620Z,97507.31
2023-02-02T18:46:46.643Z,97500.88
2023-02-02T18:49:13.579Z,97498.41
2023-02-02T18:51:41.718Z,97500.78
2023-02-02T18:54:11.021Z,97512.19
2023-02-02T18:56:38.121Z,97521.78
2023-02-02T18:59:06.445Z,97514.56
2023-02-02T19:01:33.593Z,97509.69
2023-02-02T19:04:00.991Z,97516.94
2023-02-02T19:06:47.778Z,97518.41
2023-02-02T19:09:17.610Z,97500.94
2023-02-02T19:11:49.007Z,97495.47
2023-02-02T19:14:16.400Z,97503.38
2023-02-02T19:16:45.398Z,97487.38
2023-02-02T19:19:22.716Z,97475.25
2023-02-02T19:21:58.358Z,97468.09
2023-02-02T19:24:27.684Z,97487.81
2023-02-02T19:26:55.520Z,97476.31
2023-02-02T19:29:24.941Z,97491.06
2023-02-02T19:31:56.961Z,97486.81
2023-02-02T19:34:24.323Z,97486.81
2023-02-02T19:36:52.401Z,97494.81
2023-02-02T19:39:30.941Z,97498.91
2023-02-02T19:42:00.527Z,97499.06
2023-02-02T19:44:32.113Z,97484.88
2023-02-02T19:47:00.161Z,97488.97
2023-02-02T19:49:37.340Z,97498.06
2023-02-02T19:52:04.669Z,97495.28
2023-02-02T19:54:39.716Z,97501.59
2023-02-02T19:57:15.046Z,97507.97
2023-02-02T19:59:45.685Z,97508.47
2023-02-02T20:02:37.645Z,97502.91
2023-02-02T20:05:21.553Z,97496.59
2023-02-02T20:07:56.427Z,97502.66
2023-02-02T20:10:27.278Z,97504.34
2023-02-02T20:12:55.431Z,97499.56
2023-02-02T20:15:31.759Z,97496.28
2023-02-02T20:18:01.937Z,97502.66
2023-02-02T20:20:52.046Z,97511.00
2023-02-02T20:23:29.405Z,97512.97
2023-02-02T20:25:56.949Z,97511.50
2023-02-02T20:28:37.046Z,97521.09
2023-02-02T20:31:06.179Z,97505.25
2023-02-02T20:33:33.412Z,97517.59
2023-02-02T20:36:03.146Z,97510.91
2023-02-02T20:38:40.325Z,97511.28
2023-02-02T20:41:07.302Z,97519.25
2023-02-02T20:43:36.085Z,97518.59
2023-02-02T20:46:03.357Z,97506.34
2023-02-02T20:48:30.537Z,97494.16
2023-02-02T20:50:57.370Z,97507.25
2023-02-02T20:53:24.189Z,97504.16
2023-02-02T20:55:57.183Z,97508.16
2023-02-02T20:58:25.506Z,97514.69
2023-02-02T21:00:52.759Z,97514.88
2023-02-02T21:03:20.579Z,97507.81
2023-02-02T21:05:47.925Z,97496.75
2023-02-02T21:08:14.541Z,97499.16
2023-02-02T21:10:41.731Z,97511.88
2023-02-02T21:13:08.694Z,97519.38
2023-02-02T21:15:35.725Z,97511.03
2023-02-02T21:18:02.470Z,97511.81
2023-02-02T21:20:29.573Z,97519.00
2023-02-02T21:22:56.904Z,97513.44
2023-02-02T21:25:23.583Z,97522.09
2023-02-02T21:27:50.277Z,97515.69
2023-02-02T21:30:16.979Z,97507.34
2023-02-02T21:32:44.490Z,97508.19
2023-02-02T21:35:12.111Z,97501.44
2023-02-02T21:37:40.756Z,97506.97
2023-02-02T21:40:14.836Z,97505.47
2023-02-02T21:42:48.615Z,97513.84
2023-02-02T21:45:21.124Z,97520.59
2023-02-02T21:48:21.259Z,97518.22
2023-02-02T21:50:48.116Z,97520.59
2023-02-02T21:53:25.794Z,97520.41
2023-02-02T21:55:57.293Z,97511.50
2023-02-02T21:58:38.554Z,97507.13
2023-02-02T22:01:36.164Z,97513.13
2023-02-02T22:04:03.135Z,97509.25
2023-02-02T22:06:36.372Z,97504.56
2023-02-02T22:09:11.919Z,97504.50
2023-02-02T22:12:01.556Z,97510.03
2023-02-02T22:14:38.857Z,97521.09
2023-02-02T22:17:34.496Z,97516.31
2023-02-02T22:20:25.066Z,97501.22
2023-02-02T22:22:52.260Z,97491.72
2023-02-02T22:25:21.010Z,97494.81
2023-02-02T22:27:53.967Z,97484.47
2023-02-02T22:30:28.665Z,97481.25
2023-02-02T22:32:55.703Z,97474.88
2023-02-02T22:35:22.487Z,97493.91
2023-02-02T22:37:49.224Z,97494.69
2023-02-02T22:40:16.511Z,97496.38
2023-02-02T22:42:43.207Z,97493.16
2023-02-02T22:45:10.156Z,97495.94
2023-02-02T22:47:36.789Z,97475.75
2023-02-02T22:50:03.746Z,97478.91
2023-02-02T22:52:30.351Z,97466.22
2023-02-02T22:54:57.007Z,97485.56
2023-02-02T22:57:23.677Z,97487.19
2023-02-02T22:59:50.291Z,97494.69
2023-02-02T23:02:16.955Z,97480.28
2023-02-02T23:04:43.626Z,97491.41
2023-02-02T23:07:10.277Z,97494.53
2023-02-02T23:09:36.933Z,97496.13
2023-02-02T23:12:03.686Z,97489.84
2023-02-02T23:14:30.314Z,97510.44
2023-02-02T23:16:57.014Z,97496.22
2023-02-02T23:19:23.600Z,97489.09
2023-02-02T23:21:50.215Z,97492.97
2023-02-02T23:24:16.847Z,97488.97
2023-02-02T23:26:43.567Z,97488.09
2023-02-02T23:29:10.183Z,97494.88
2023-02-02T23:31:36.938Z,97496.81
2023-02-02T23:34:03.593Z,97479.31
2023-02-02T23:36:30.201Z,97472.53
2023-02-02T23:38:56.884Z,97468.09
2023-02-02T23:41:23.530Z,97473.22
2023-02-02T23:43:50.482Z,97490.31
2023-02-02T23:46:18.051Z,97499.03
2023-02-02T23:48:45.233Z,97483.19
2023-02-02T23:51:12.435Z,97496.31
2023-02-02T23:53:39.594Z,97513.34
2023-02-02T23:56:06.370Z,97512.53
2023-02-02T23:58:33.079Z,97528.84
